Time;durP1;ratioP1;P1;durP2;ratioP2;P2;SDS_P1;SDS_P2;PMS_P1;PMS_P2;Temp;Humidity;BMP_temperature;BMP_pressure;BME280_temperature;BME280_humidity;BME280_pressure;Samples;Min_cycle;Max_cycle;Signal;HPM_P1;HPM_P2
2021/01/11 00:00:21;;;;;;;26.15;10.72;;;;;;;-5.69;82.03;97229.14;1773068;80;21136;-88
2021/01/11 00:02:52;;;;;;;25.43;11.25;;;;;;;-5.58;82.03;97235.77;1772942;80;21109;-88
2021/01/11 00:05:19;;;;;;;21.68;11.12;;;;;;;-5.47;82.00;97226.89;1773055;80;21102;-89
2021/01/11 00:07:47;;;;;;;24.87;11.33;;;;;;;-5.44;81.76;97223.50;1772837;80;21148;-89
2021/01/11 00:10:15;;;;;;;34.60;15.80;;;;;;;-5.44;81.63;97219.62;1772415;80;21145;-88
2021/01/11 00:12:44;;;;;;;25.30;12.85;;;;;;;-5.35;81.64;97219.11;1769821;80;21659;-89
2021/01/11 00:15:16;;;;;;;20.48;11.55;;;;;;;-5.27;81.62;97216.53;1769916;80;21188;-88
2021/01/11 00:17:46;;;;;;;35.03;15.28;;;;;;;-5.23;81.46;97217.80;1769919;80;21485;-88
2021/01/11 00:20:14;;;;;;;31.33;13.65;;;;;;;-5.29;81.34;97214.59;1769965;81;21152;-88
2021/01/11 00:22:45;;;;;;;28.50;13.38;;;;;;;-5.29;81.34;97215.08;1778088;78;21143;-88
2021/01/11 00:25:14;;;;;;;24.72;12.63;;;;;;;-5.24;81.47;97216.68;1768436;78;21107;-88
2021/01/11 00:27:42;;;;;;;27.30;14.40;;;;;;;-5.17;81.58;97207.31;1768353;78;21181;-88
2021/01/11 00:30:11;;;;;;;27.32;14.63;;;;;;;-5.09;81.63;97208.58;1788378;78;21832;-88
2021/01/11 00:32:40;;;;;;;33.53;14.80;;;;;;;-5.04;81.60;97203.73;1790715;78;21098;-88
2021/01/11 00:35:09;;;;;;;28.97;14.37;;;;;;;-5.01;81.58;97205.98;1782629;80;21115;-88
2021/01/11 00:37:38;;;;;;;28.32;14.30;;;;;;;-5.07;81.39;97180.77;1767186;80;21961;-88
2021/01/11 00:40:08;;;;;;;28.45;15.05;;;;;;;-4.97;81.56;97198.20;1767035;81;21545;-88
2021/01/11 00:42:37;;;;;;;28.70;14.70;;;;;;;-4.97;81.50;97192.23;1756981;79;21293;-88
2021/01/11 00:45:09;;;;;;;26.30;13.80;;;;;;;-4.96;81.48;97199.81;1758420;81;21124;-88
2021/01/11 00:47:40;;;;;;;26.95;14.75;;;;;;;-4.95;81.41;97193.67;1783867;80;21140;-88
2021/01/11 00:50:10;;;;;;;34.48;16.32;;;;;;;-4.97;81.34;97190.45;1779326;80;21111;-88
2021/01/11 00:52:38;;;;;;;30.65;16.80;;;;;;;-5.02;81.28;97192.73;1776283;80;21124;-88
2021/01/11 00:55:09;;;;;;;32.00;17.07;;;;;;;-5.07;81.21;97191.11;1776220;80;21151;-89
2021/01/11 00:57:37;;;;;;;28.42;16.82;;;;;;;-5.14;81.13;97190.17;1780963;80;21147;-88
2021/01/11 01:00:10;;;;;;;25.77;14.63;;;;;;;-5.19;81.10;97191.17;1783863;80;21138;-88
2021/01/11 01:02:37;;;;;;;29.63;15.70;;;;;;;-5.21;81.04;97194.38;1778874;80;21115;-88
2021/01/11 01:05:11;;;;;;;32.67;15.70;;;;;;;-5.26;80.95;97191.49;1751905;81;21156;-88
2021/01/11 01:07:43;;;;;;;28.80;13.88;;;;;;;-5.31;80.91;97187.31;1773100;80;21151;-88
2021/01/11 01:10:12;;;;;;;36.68;15.63;;;;;;;-5.29;80.88;97189.24;1779269;80;21115;-88
2021/01/11 01:12:39;;;;;;;26.77;14.20;;;;;;;-5.30;80.80;97187.14;1783168;80;21119;-88
2021/01/11 01:15:09;;;;;;;30.12;14.05;;;;;;;-5.32;80.67;97188.28;1772753;80;21494;-88
2021/01/11 01:17:37;;;;;;;29.70;15.28;;;;;;;-5.32;80.61;97186.99;1776343;80;21156;-88
2021/01/11 01:20:08;;;;;;;27.98;14.38;;;;;;;-5.40;80.42;97180.85;1784222;80;21141;-88
2021/01/11 01:22:35;;;;;;;32.23;14.85;;;;;;;-5.48;80.40;97187.34;1764638;80;21127;-88
2021/01/11 01:25:02;;;;;;;29.77;15.55;;;;;;;-5.54;80.39;97180.22;1766923;81;21129;-88
2021/01/11 01:27:29;;;;;;;25.23;12.40;;;;;;;-5.58;80.38;97181.53;1776785;80;21498;-88
2021/01/11 01:29:56;;;;;;;34.20;17.02;;;;;;;-5.62;80.41;97185.41;1776140;80;21447;-88
2021/01/11 01:32:23;;;;;;;30.92;15.20;;;;;;;-5.67;80.44;97186.36;1791329;80;21156;-88
2021/01/11 01:34:50;;;;;;;28.83;14.43;;;;;;;-5.73;80.44;97180.08;1770673;79;21090;-88
2021/01/11 01:37:17;;;;;;;28.20;15.30;;;;;;;-5.70;80.57;97173.78;1783876;80;21148;-88
2021/01/11 01:39:44;;;;;;;32.88;15.03;;;;;;;-5.67;80.67;97167.00;1780050;80;21206;-88
2021/01/11 01:42:11;;;;;;;25.88;12.30;;;;;;;-5.69;80.69;97165.06;1796356;79;21160;-88
2021/01/11 01:44:38;;;;;;;26.65;13.65;;;;;;;-5.77;80.57;97161.18;1774940;79;21144;-88
2021/01/11 01:47:05;;;;;;;27.62;12.45;;;;;;;-5.86;80.64;97160.88;1777836;80;21493;-88
2021/01/11 01:49:33;;;;;;;20.62;11.55;;;;;;;-5.86;80.72;97159.11;1766409;80;21491;-88
2021/01/11 01:51:59;;;;;;;24.30;11.75;;;;;;;-5.89;80.88;97165.08;1776887;80;21152;-88
2021/01/11 01:54:26;;;;;;;27.00;13.72;;;;;;;-5.90;81.00;97168.66;1763734;80;21487;-88
2021/01/11 01:56:54;;;;;;;22.20;10.85;;;;;;;-5.93;81.01;97167.19;1783438;80;21452;-88
2021/01/11 01:59:21;;;;;;;21.90;12.43;;;;;;;-5.88;81.01;97166.20;1766126;80;21127;-88
2021/01/11 02:01:50;;;;;;;24.05;12.35;;;;;;;-5.83;80.96;97167.00;1749170;80;21165;-88
2021/01/11 02:04:17;;;;;;;24.60;12.85;;;;;;;-5.83;80.83;97160.06;1781464;79;21133;-88
2021/01/11 02:06:47;;;;;;;24.85;13.22;;;;;;;-5.82;80.73;97154.42;1785762;79;21654;-88
2021/01/11 02:09:19;;;;;;;22.85;11.50;;;;;;;-5.80;80.67;97151.98;1789393;80;21141;-88
2021/01/11 02:11:57;;;;;;;23.12;11.12;;;;;;;-5.79;80.68;97148.92;1789486;79;21547;-88
2021/01/11 02:14:57;;;;;;;29.15;12.90;;;;;;;-5.78;80.64;97143.59;1787685;80;21124;-88
2021/01/11 02:17:41;;;;;;;26.80;12.20;;;;;;;-5.76;80.58;97144.75;1754717;81;21152;-88
2021/01/11 02:20:32;;;;;;;27.07;11.88;;;;;;;-5.73;80.54;97140.55;1767376;80;21105;-88
2021/01/11 02:23:39;;;;;;;21.60;10.43;;;;;;;-5.73;80.38;97141.84;1767228;81;21118;-88
2021/01/11 02:26:30;;;;;;;23.73;11.97;;;;;;;-5.74;80.40;97140.23;1752995;81;21613;-88
2021/01/11 02:29:48;;;;;;;25.62;11.70;;;;;;;-5.72;80.39;97134.41;1758025;81;21519;-88
2021/01/11 02:32:17;;;;;;;23.75;10.98;;;;;;;-5.70;80.37;97145.38;1754730;81;21140;-88
2021/01/11 02:34:47;;;;;;;18.48;9.43;;;;;;;-5.73;80.33;97136.19;1766840;81;21167;-88
2021/01/11 02:37:14;;;;;;;26.52;12.13;;;;;;;-5.73;80.30;97140.55;1794769;80;21123;-88
2021/01/11 02:39:42;;;;;;;23.35;12.70;;;;;;;-5.76;80.20;97133.13;1780917;80;21571;-88
2021/01/11 02:42:09;;;;;;;25.85;12.47;;;;;;;-5.78;80.15;97130.69;1775552;80;21491;-88
2021/01/11 02:44:36;;;;;;;23.10;13.68;;;;;;;-5.79;80.16;97134.72;1767369;80;21094;-88
2021/01/11 02:47:03;;;;;;;26.95;12.35;;;;;;;-5.79;80.22;97135.53;1770661;80;21161;-88
2021/01/11 02:49:45;;;;;;;27.67;13.10;;;;;;;-5.79;80.21;97137.30;1766737;80;21150;-88
2021/01/11 02:52:26;;;;;;;24.45;11.28;;;;;;;-5.81;80.23;97128.92;1774504;80;21175;-88
2021/01/11 02:55:13;;;;;;;22.70;11.25;;;;;;;-5.79;80.32;97130.36;1776993;80;21159;-88
2021/01/11 02:57:49;;;;;;;22.20;12.05;;;;;;;-5.78;80.39;97131.97;1768990;80;21127;-87
2021/01/11 03:00:19;;;;;;;24.65;12.65;;;;;;;-5.79;80.44;97121.33;1777700;80;21135;-88
2021/01/11 03:02:49;;;;;;;23.18;11.55;;;;;;;-5.79;80.39;97126.98;1773615;79;21146;-88
2021/01/11 03:05:16;;;;;;;28.47;13.43;;;;;;;-5.80;80.39;97126.66;1778673;80;21123;-88
2021/01/11 03:07:59;;;;;;;26.12;12.23;;;;;;;-5.82;80.36;97128.11;1764090;80;21160;-87
2021/01/11 03:10:26;;;;;;;25.65;11.80;;;;;;;-5.82;80.31;97127.31;1782997;80;21137;-88
2021/01/11 03:12:53;;;;;;;25.43;10.88;;;;;;;-5.82;80.32;97125.53;1801831;79;21147;-88
2021/01/11 03:15:20;;;;;;;20.70;9.70;;;;;;;-5.82;80.21;97123.44;1772432;81;21132;-88
2021/01/11 03:17:47;;;;;;;23.98;11.93;;;;;;;-5.81;80.34;97117.30;1793609;79;21288;-88
2021/01/11 03:20:17;;;;;;;22.17;11.85;;;;;;;-5.81;80.32;97116.81;1772399;81;21121;-88
2021/01/11 03:22:44;;;;;;;23.38;11.70;;;;;;;-5.82;80.28;97116.98;1789916;79;22320;-88
2021/01/11 03:25:11;;;;;;;27.37;13.35;;;;;;;-5.85;80.22;97118.13;1771943;79;21522;-88
2021/01/11 03:27:38;;;;;;;27.48;11.78;;;;;;;-5.86;80.17;97116.51;1791160;79;21507;-88
2021/01/11 03:30:07;;;;;;;21.75;11.73;;;;;;;-5.86;80.16;97117.80;1803797;78;21553;-88
2021/01/11 03:32:35;;;;;;;16.27;9.10;;;;;;;-5.87;80.13;97116.19;1798891;78;21533;-87
2021/01/11 03:35:02;;;;;;;22.35;12.30;;;;;;;-5.89;80.20;97114.26;1824045;78;21282;-87
2021/01/11 03:37:29;;;;;;;22.73;10.48;;;;;;;-5.92;80.10;97115.08;1784434;79;21136;-88
2021/01/11 03:39:56;;;;;;;22.70;11.85;;;;;;;-5.94;80.09;97118.30;1804206;79;21495;-88
2021/01/11 03:42:23;;;;;;;25.45;12.25;;;;;;;-5.95;80.10;97121.38;1794256;78;21114;-88
2021/01/11 03:44:50;;;;;;;28.67;13.85;;;;;;;-5.97;80.22;97122.51;1778591;79;21138;-88
2021/01/11 03:47:20;;;;;;;23.62;13.30;;;;;;;-6.00;80.24;97124.45;1789658;79;21157;-88
2021/01/11 03:49:47;;;;;;;27.45;13.18;;;;;;;-6.03;80.21;97121.39;1812667;78;21182;-88
2021/01/11 03:52:14;;;;;;;23.45;12.73;;;;;;;-6.05;80.29;97120.27;1813407;78;21132;-87
2021/01/11 03:54:41;;;;;;;23.85;13.62;;;;;;;-6.05;80.31;97118.97;1817698;78;21478;-88
2021/01/11 03:57:08;;;;;;;30.50;13.72;;;;;;;-6.10;80.37;97112.66;1790872;78;21112;-88
2021/01/11 03:59:35;;;;;;;23.57;11.95;;;;;;;-6.13;80.31;97110.41;1822967;78;21293;-88
2021/01/11 04:02:02;;;;;;;25.27;13.30;;;;;;;-6.12;80.36;97108.96;1794295;78;21137;-88
2021/01/11 04:04:29;;;;;;;25.20;12.25;;;;;;;-6.08;80.37;97114.59;1812428;78;21147;-87
2021/01/11 04:06:55;;;;;;;22.40;11.73;;;;;;;-6.07;80.37;97114.92;1782354;78;21103;-87
2021/01/11 04:09:22;;;;;;;21.82;11.48;;;;;;;-6.08;80.36;97107.66;1806791;78;21184;-88
2021/01/11 04:11:49;;;;;;;22.40;11.70;;;;;;;-6.07;80.25;97105.40;1798877;78;21156;-88
2021/01/11 04:14:16;;;;;;;29.95;14.03;;;;;;;-6.07;80.32;97102.82;1789727;79;21126;-87
2021/01/11 04:16:44;;;;;;;18.98;10.35;;;;;;;-6.08;80.32;97110.24;1798795;79;21135;-88
2021/01/11 04:19:11;;;;;;;25.02;11.70;;;;;;;-6.09;80.42;97106.05;1782657;80;21160;-88
2021/01/11 04:21:43;;;;;;;21.10;11.43;;;;;;;-6.06;80.62;97108.78;1782632;80;21127;-87
2021/01/11 04:24:10;;;;;;;22.87;11.85;;;;;;;-6.02;81.00;97117.36;1782277;79;21095;-87
2021/01/11 04:26:38;;;;;;;28.92;12.90;;;;;;;-5.95;80.94;97112.83;1783518;79;21106;-88
2021/01/11 04:29:04;;;;;;;20.32;12.55;;;;;;;-5.95;80.74;97115.41;1789953;80;21149;-88
2021/01/11 04:31:31;;;;;;;25.02;11.97;;;;;;;-5.99;80.64;97115.73;1789968;80;21140;-87
2021/01/11 04:33:58;;;;;;;26.25;12.40;;;;;;;-5.99;80.63;97111.86;1786521;80;21135;-88
2021/01/11 04:36:25;;;;;;;24.35;12.98;;;;;;;-5.94;80.75;97117.02;1782268;79;21115;-88
2021/01/11 04:38:52;;;;;;;21.60;12.18;;;;;;;-5.96;80.65;97114.60;1782267;79;21145;-87
2021/01/11 04:41:21;;;;;;;28.17;13.98;;;;;;;-5.99;80.56;97114.93;1798512;78;21107;-88
2021/01/11 04:43:50;;;;;;;28.17;14.83;;;;;;;-6.03;80.56;97115.75;1775085;79;21512;-87
2021/01/11 04:46:17;;;;;;;32.10;14.23;;;;;;;-6.06;80.54;97118.63;1789953;80;21127;-88
2021/01/11 04:48:44;;;;;;;24.43;13.75;;;;;;;-6.09;80.50;97118.95;1783231;80;21206;-87
2021/01/11 04:51:11;;;;;;;27.35;13.75;;;;;;;-6.16;80.43;97127.03;1782295;80;21111;-88
2021/01/11 04:53:45;;;;;;;26.87;15.55;;;;;;;-6.20;80.43;97121.84;1799087;80;21126;-88
2021/01/11 04:56:12;;;;;;;28.32;13.35;;;;;;;-6.26;80.44;97118.63;1751821;81;21119;-87
2021/01/11 04:58:55;;;;;;;29.63;14.30;;;;;;;-6.26;80.43;97112.66;1782175;79;21329;-88
2021/01/11 05:01:29;;;;;;;26.10;13.30;;;;;;;-6.30;80.35;97116.86;1782394;79;21154;-88
2021/01/11 05:04:01;;;;;;;28.50;14.45;;;;;;;-6.33;80.26;97115.90;1785427;79;21112;-88
2021/01/11 05:06:29;;;;;;;26.37;12.93;;;;;;;-6.36;80.21;97116.67;1798641;80;21111;-88
2021/01/11 05:09:08;;;;;;;23.35;11.97;;;;;;;-6.43;80.08;97122.16;1782275;79;21168;-88
2021/01/11 05:11:36;;;;;;;19.12;9.93;;;;;;;-6.59;80.03;97117.30;1784817;79;21129;-89
2021/01/11 05:14:03;;;;;;;23.52;10.85;;;;;;;-6.71;80.09;97119.05;1794867;78;21268;-88
2021/01/11 05:16:31;;;;;;;21.05;11.57;;;;;;;-6.83;80.14;97117.72;1797041;78;21092;-88
2021/01/11 05:19:25;;;;;;;22.45;11.63;;;;;;;-6.89;80.50;97119.97;1790371;78;21083;-88
2021/01/11 05:21:53;;;;;;;26.42;13.10;;;;;;;-6.99;80.65;97114.13;1811186;78;21114;-88
2021/01/11 05:24:42;;;;;;;23.87;11.95;;;;;;;-7.07;80.83;97111.50;1793657;78;21523;-88
2021/01/11 05:27:12;;;;;;;17.05;8.10;;;;;;;-7.00;80.99;97115.57;1813543;78;21137;-88
2021/01/11 05:29:40;;;;;;;26.00;12.25;;;;;;;-6.90;81.05;97114.94;1815175;78;21112;-88
2021/01/11 05:32:10;;;;;;;28.20;14.75;;;;;;;-6.83;81.05;97112.56;1801208;80;21092;-87
2021/01/11 05:34:53;;;;;;;30.65;14.78;;;;;;;-6.86;80.86;97109.82;1785682;78;21530;-87
2021/01/11 05:37:39;;;;;;;26.90;13.93;;;;;;;-6.84;80.90;97107.89;1793825;78;21141;-87
2021/01/11 05:40:14;;;;;;;22.00;11.53;;;;;;;-6.80;80.86;97105.31;1816224;78;21273;-87
2021/01/11 05:42:45;;;;;;;25.68;13.48;;;;;;;-6.74;80.89;97106.47;1774832;78;21151;-87
2021/01/11 05:45:27;;;;;;;26.82;12.13;;;;;;;-6.67;80.95;97108.73;1755478;81;21117;-87
2021/01/11 05:48:08;;;;;;;26.20;12.63;;;;;;;-6.62;80.90;97112.92;1778683;80;21108;-87
2021/01/11 05:50:48;;;;;;;30.08;13.28;;;;;;;-6.58;80.95;97115.53;1784472;80;21485;-87
2021/01/11 05:53:23;;;;;;;28.60;14.20;;;;;;;-6.50;81.05;97114.72;1794404;78;21115;-87
2021/01/11 05:55:54;;;;;;;24.67;12.30;;;;;;;-6.45;81.07;97118.94;1786807;78;21464;-87
2021/01/11 05:58:25;;;;;;;29.65;13.25;;;;;;;-6.41;81.05;97119.74;1781322;79;21105;-87
2021/01/11 06:00:52;;;;;;;27.40;13.62;;;;;;;-6.35;81.02;97121.67;1801076;80;21141;-87
2021/01/11 06:03:19;;;;;;;18.45;9.45;;;;;;;-6.33;80.90;97120.25;1787890;78;21110;-87
2021/01/11 06:05:47;;;;;;;26.57;13.90;;;;;;;-6.32;81.21;97116.70;1814158;78;21195;-87
2021/01/11 06:08:15;;;;;;;24.52;13.83;;;;;;;-6.23;81.26;97122.17;1781336;80;21508;-87
2021/01/11 06:10:44;;;;;;;20.17;11.35;;;;;;;-6.22;81.20;97125.08;1821265;78;22232;-87
2021/01/11 06:13:13;;;;;;;26.03;14.07;;;;;;;-6.19;81.25;97115.75;1784080;79;21121;-87
2021/01/11 06:15:42;;;;;;;23.32;13.32;;;;;;;-6.20;81.01;97120.55;1789960;80;21492;-87
2021/01/11 06:18:14;;;;;;;22.70;11.73;;;;;;;-6.23;80.96;97129.91;1789974;80;21127;-86
2021/01/11 06:20:46;;;;;;;29.57;14.05;;;;;;;-6.24;80.96;97128.30;1773634;78;21118;-87
2021/01/11 06:23:28;;;;;;;26.80;14.28;;;;;;;-6.22;80.97;97131.52;1784743;78;21117;-87
2021/01/11 06:25:55;;;;;;;29.37;14.50;;;;;;;-6.22;80.90;97135.39;1779123;78;21295;-87
2021/01/11 06:28:35;;;;;;;27.80;13.30;;;;;;;-6.23;80.86;97129.91;1810065;78;21126;-86
2021/01/11 06:31:14;;;;;;;23.77;12.28;;;;;;;-6.22;80.79;97136.69;1802072;79;21127;-87
2021/01/11 06:33:42;;;;;;;27.93;12.50;;;;;;;-6.20;80.78;97136.52;1763756;80;21112;-87
2021/01/11 06:36:26;;;;;;;22.35;12.60;;;;;;;-6.19;80.67;97135.09;1801878;79;21147;-87
2021/01/11 06:38:54;;;;;;;31.97;14.18;;;;;;;-6.21;80.58;97133.13;1777303;80;21583;-87
2021/01/11 06:41:26;;;;;;;27.13;13.13;;;;;;;-6.17;80.58;97137.52;1806666;78;21144;-87
2021/01/11 06:43:56;;;;;;;27.82;11.80;;;;;;;-6.17;80.54;97134.45;1755526;82;21149;-86
2021/01/11 06:46:39;;;;;;;19.98;10.43;;;;;;;-6.14;80.55;97128.96;1769613;80;21238;-86
2021/01/11 06:49:05;;;;;;;;;;;;;;;-6.09;80.68;97130.56;1772744;80;21550;-87
2021/01/11 06:51:37;;;;;;;21.90;10.63;;;;;;;-6.03;80.70;97128.65;1770388;80;20334;-86
2021/01/11 06:54:15;;;;;;;26.75;12.37;;;;;;;-5.96;80.90;97133.16;1770158;80;21275;-86
2021/01/11 06:56:45;;;;;;;26.97;13.58;;;;;;;-5.89;80.97;97134.11;1770189;81;21150;-86
2021/01/11 06:59:16;;;;;;;33.45;15.28;;;;;;;-5.87;80.73;97133.45;1770584;80;21310;-86
2021/01/11 07:01:46;;;;;;;33.20;15.08;;;;;;;-5.90;80.49;97137.69;1770165;81;21503;-87
2021/01/11 07:04:36;;;;;;;32.15;14.53;;;;;;;-5.85;80.36;97137.48;1770375;80;21151;-87
2021/01/11 07:07:04;;;;;;;33.53;15.35;;;;;;;-5.58;80.42;97139.39;1770421;80;21547;-87
2021/01/11 07:09:32;;;;;;;28.12;15.40;;;;;;;-5.17;80.32;97140.12;1769818;81;21104;-87
2021/01/11 07:12:05;;;;;;;30.75;16.05;;;;;;;-4.75;80.16;97132.52;1770208;80;21147;-86
2021/01/11 07:14:58;;;;;;;30.10;15.25;;;;;;;-4.35;79.51;97127.62;1770257;80;21504;-87
2021/01/11 07:17:47;;;;;;;26.23;15.00;;;;;;;-3.90;79.38;97133.27;1747713;80;21213;-87
2021/01/11 07:20:15;;;;;;;37.03;19.57;;;;;;;-3.49;78.02;97132.92;1770087;80;21140;-87
2021/01/11 07:22:44;;;;;;;37.65;19.10;;;;;;;-3.23;77.70;97129.42;1770333;80;21147;-87
2021/01/11 07:25:25;;;;;;;31.68;17.77;;;;;;;-2.92;76.89;97131.83;1770555;81;21112;-87
2021/01/11 07:27:59;;;;;;;28.05;16.23;;;;;;;-2.79;76.05;97130.70;1769760;81;21524;-87
2021/01/11 07:30:27;;;;;;;35.73;19.82;;;;;;;-2.63;75.98;97130.98;1771094;80;21120;-87
2021/01/11 07:32:55;;;;;;;36.85;19.48;;;;;;;-2.37;75.40;97134.86;1770095;80;21452;-87
2021/01/11 07:35:22;;;;;;;31.93;18.05;;;;;;;-2.16;75.27;97129.67;1759810;80;21162;-87
2021/01/11 07:37:49;;;;;;;32.30;18.80;;;;;;;-2.00;74.41;97133.81;1773379;80;21130;-87
2021/01/11 07:40:17;;;;;;;33.28;16.10;;;;;;;-1.84;73.87;97136.96;1752657;80;21148;-87
2021/01/11 07:42:44;;;;;;;34.75;18.75;;;;;;;-1.73;72.99;97134.36;1756940;80;21130;-87
2021/01/11 07:45:13;;;;;;;30.02;16.87;;;;;;;-1.64;73.57;97132.44;1743521;81;21139;-87
2021/01/11 07:47:41;;;;;;;33.70;17.87;;;;;;;-1.38;73.73;97135.24;1784829;79;21149;-88
2021/01/11 07:50:09;;;;;;;30.27;17.55;;;;;;;-1.18;73.37;97124.95;1789827;80;21194;-87
2021/01/11 07:52:37;;;;;;;30.68;17.75;;;;;;;-1.02;72.80;97135.05;1792632;80;21107;-87
2021/01/11 07:55:07;;;;;;;29.80;17.55;;;;;;;-1.05;72.30;97132.84;1786219;79;21141;-87
2021/01/11 07:57:36;;;;;;;31.73;18.45;;;;;;;-1.08;71.68;97133.73;1789658;80;21145;-88
2021/01/11 08:00:10;;;;;;;26.52;15.05;;;;;;;-1.26;71.15;97134.23;1789725;80;21155;-87
2021/01/11 08:02:39;;;;;;;28.65;15.85;;;;;;;-1.46;70.70;97144.47;1786446;80;21153;-87
2021/01/11 08:05:24;;;;;;;29.10;15.75;;;;;;;-1.33;71.42;97150.27;1782306;80;21194;-87
2021/01/11 08:07:55;;;;;;;29.52;17.80;;;;;;;-1.23;70.78;97143.75;1797843;79;21528;-87
2021/01/11 08:10:23;;;;;;;25.92;14.18;;;;;;;-1.15;70.92;97144.08;1781521;79;21171;-87
2021/01/11 08:12:51;;;;;;;26.27;16.00;;;;;;;-0.97;71.24;97150.11;1800359;79;21507;-87
2021/01/11 08:15:20;;;;;;;26.20;15.18;;;;;;;-0.87;70.96;97151.04;1801198;79;21266;-87
2021/01/11 08:17:47;;;;;;;29.57;15.95;;;;;;;-0.78;70.75;97149.40;1801105;79;21123;-87
2021/01/11 08:20:24;;;;;;;32.03;16.77;;;;;;;-0.73;70.11;97144.41;1801487;79;21156;-87
2021/01/11 08:22:52;;;;;;;24.07;15.38;;;;;;;-0.82;70.12;97146.08;1801111;79;21107;-87
2021/01/11 08:25:20;;;;;;;27.15;16.17;;;;;;;-0.65;70.60;97152.06;1801181;79;21140;-87
2021/01/11 08:27:51;;;;;;;27.50;15.95;;;;;;;-0.61;70.36;97148.56;1801160;79;21135;-87
2021/01/11 08:30:23;;;;;;;31.62;17.70;;;;;;;-0.47;70.62;97147.62;1801399;79;21108;-87
2021/01/11 08:32:53;;;;;;;29.67;16.12;;;;;;;-0.55;69.85;97150.91;1801134;79;21568;-87
2021/01/11 08:35:23;;;;;;;28.32;16.85;;;;;;;-0.71;69.58;97153.32;1801152;79;21100;-87
2021/01/11 08:37:54;;;;;;;26.30;16.20;;;;;;;-0.75;69.93;97151.61;1801269;79;21274;-87
2021/01/11 08:40:32;;;;;;;32.10;16.50;;;;;;;-0.74;70.24;97148.01;1800000;80;21262;-88
2021/01/11 08:43:19;;;;;;;23.17;14.43;;;;;;;-0.78;69.74;97163.72;1801219;79;21265;-88
2021/01/11 08:45:54;;;;;;;24.82;15.25;;;;;;;-0.87;70.03;97160.15;1801507;79;21104;-88
2021/01/11 08:48:27;;;;;;;23.62;14.47;;;;;;;-0.87;70.03;97160.15;1800447;79;21085;-89
2021/01/11 08:50:58;;;;;;;26.27;15.95;;;;;;;-0.97;69.55;97160.02;1801076;80;21154;-89
2021/01/11 08:53:37;;;;;;;29.67;16.87;;;;;;;-0.99;70.00;97158.08;1801695;79;21140;-89
2021/01/11 08:56:09;;;;;;;34.50;17.42;;;;;;;-1.08;69.41;97160.55;1801348;79;21135;-89
2021/01/11 08:58:50;;;;;;;31.05;16.57;;;;;;;-1.17;69.48;97168.68;1801180;80;21140;-89
2021/01/11 09:01:24;;;;;;;32.15;17.23;;;;;;;-1.19;69.88;97163.67;1801372;79;21653;-89
2021/01/11 09:03:58;;;;;;;28.20;16.97;;;;;;;-1.14;69.94;97166.99;1801412;79;21080;-89
2021/01/11 09:06:42;;;;;;;27.02;15.75;;;;;;;-1.06;70.04;97157.75;1801322;80;21146;-89
2021/01/11 09:09:17;;;;;;;30.27;15.93;;;;;;;-0.98;69.36;97168.02;1801072;79;21679;-89
2021/01/11 09:11:48;;;;;;;26.12;16.45;;;;;;;-0.98;69.36;97168.02;1801169;80;21245;-89
2021/01/11 09:14:18;;;;;;;26.00;15.58;;;;;;;-1.04;69.28;97163.56;1801670;79;21111;-89
2021/01/11 09:16:48;;;;;;;27.52;16.20;;;;;;;-1.01;69.29;97156.67;1802125;79;21131;-89
2021/01/11 09:19:22;;;;;;;32.70;18.37;;;;;;;-1.07;69.29;97160.05;1802186;79;21164;-89
2021/01/11 09:22:06;;;;;;;28.20;16.55;;;;;;;-1.13;69.25;97161.59;1801916;79;21111;-89
2021/01/11 09:24:34;;;;;;;27.77;16.55;;;;;;;-1.14;69.05;97168.30;1801881;80;21123;-89
2021/01/11 09:27:02;;;;;;;30.48;16.75;;;;;;;-1.32;69.37;97177.38;1801900;79;21160;-89
2021/01/11 09:29:29;;;;;;;29.12;17.05;;;;;;;-1.53;69.24;97141.03;1802083;79;21143;-88
2021/01/11 09:31:56;;;;;;;30.55;18.40;;;;;;;-1.42;69.18;97169.59;1802036;79;21100;-89
2021/01/11 09:34:24;;;;;;;31.15;18.07;;;;;;;-1.45;69.64;97162.98;1802049;80;21170;-89
2021/01/11 09:36:51;;;;;;;36.80;19.07;;;;;;;-1.18;70.13;97148.86;1801901;80;21142;-89
2021/01/11 09:39:18;;;;;;;42.90;23.77;;;;;;;-1.18;70.13;97148.86;1801943;80;21487;-89
2021/01/11 09:41:53;;;;;;;36.58;21.37;;;;;;;-1.10;70.05;97157.34;1802216;80;21570;-89
2021/01/11 09:44:21;;;;;;;29.95;17.30;;;;;;;-1.01;70.43;97151.47;1801976;80;21092;-89
2021/01/11 09:46:55;;;;;;;31.05;18.65;;;;;;;-0.95;69.80;97147.61;1801832;79;21458;-89
2021/01/11 09:49:24;;;;;;;32.80;17.45;;;;;;;-0.85;70.12;97144.64;1801944;79;21136;-89
2021/01/11 09:51:52;;;;;;;34.63;18.90;;;;;;;-0.70;70.03;97142.74;1801850;80;21171;-89
2021/01/11 09:54:21;;;;;;;30.32;17.62;;;;;;;-0.64;69.59;97146.36;1801979;79;21459;-89
2021/01/11 09:56:48;;;;;;;27.45;16.75;;;;;;;-0.66;69.05;97142.65;1801972;80;21143;-90
2021/01/11 09:59:16;;;;;;;27.40;15.83;;;;;;;-0.66;69.05;97142.65;1801899;79;21103;-91
2021/01/11 10:01:47;;;;;;;33.73;18.77;;;;;;;-0.71;68.72;97141.11;1801955;79;21119;-90
2021/01/11 10:04:17;;;;;;;33.85;19.25;;;;;;;-0.67;69.38;97142.34;1802144;79;21096;-90
2021/01/11 10:06:49;;;;;;;38.90;19.95;;;;;;;-0.54;69.50;97137.69;1801973;79;21139;-90
2021/01/11 10:09:21;;;;;;;37.42;18.75;;;;;;;-0.45;69.15;97135.20;1801748;79;21123;-90
2021/01/11 10:11:56;;;;;;;38.08;21.12;;;;;;;-0.42;69.12;97132.23;1801886;79;21107;-89
2021/01/11 10:14:27;;;;;;;33.58;17.48;;;;;;;-0.45;69.15;97114.87;1800987;79;21326;-89
2021/01/11 10:16:54;;;;;;;34.92;18.32;;;;;;;-0.27;68.58;97126.86;1801261;79;21147;-90
2021/01/11 10:19:26;;;;;;;36.45;20.95;;;;;;;-0.33;68.88;97108.09;1801211;79;21271;-90
2021/01/11 10:21:54;;;;;;;29.15;16.77;;;;;;;-0.04;69.29;97127.80;1801270;80;21155;-89
2021/01/11 10:24:23;;;;;;;28.23;16.20;;;;;;;-0.08;68.67;97093.52;1801096;79;21479;-89
2021/01/11 10:26:52;;;;;;;30.30;16.90;;;;;;;0.08;68.23;97117.09;1801312;79;21467;-90
2021/01/11 10:29:23;;;;;;;29.30;16.00;;;;;;;0.12;68.22;97122.20;1800986;80;21286;-90
2021/01/11 10:31:53;;;;;;;32.13;18.95;;;;;;;0.30;68.17;97124.23;1801080;79;21606;-90
2021/01/11 10:34:22;;;;;;;30.62;18.20;;;;;;;0.40;67.75;97114.18;1801029;79;21174;-90
2021/01/11 10:36:54;;;;;;;31.95;17.80;;;;;;;0.32;67.44;97119.61;1801063;79;21107;-90
2021/01/11 10:39:23;;;;;;;33.92;18.98;;;;;;;0.33;67.41;97120.42;1801020;79;21299;-90
2021/01/11 10:41:56;;;;;;;27.00;14.85;;;;;;;0.34;67.72;97115.50;1801337;79;21499;-89
2021/01/11 10:44:27;;;;;;;30.25;18.23;;;;;;;0.39;67.39;97099.54;1801017;79;21791;-90
2021/01/11 10:46:58;;;;;;;30.92;16.07;;;;;;;0.27;67.40;97078.98;1800705;79;21285;-87
2021/01/11 10:49:27;;;;;;;30.30;16.77;;;;;;;0.39;67.23;97100.84;1801075;79;21148;-90
2021/01/11 10:51:55;;;;;;;23.83;14.60;;;;;;;0.49;67.28;97104.36;1800991;79;21281;-91
2021/01/11 10:54:27;;;;;;;24.50;13.53;;;;;;;0.70;67.54;97105.42;1798895;79;21597;-92
2021/01/11 10:56:55;;;;;;;19.67;12.35;;;;;;;0.78;66.27;97101.31;1799294;80;21120;-91
2021/01/11 10:59:23;;;;;;;23.02;13.65;;;;;;;0.75;65.90;97099.61;1799136;80;21115;-92
2021/01/11 11:01:52;;;;;;;17.12;9.90;;;;;;;0.83;65.16;97088.94;1796852;78;21083;-91
2021/01/11 11:04:21;;;;;;;21.17;12.60;;;;;;;0.83;65.16;97088.94;1788187;78;22160;-90
2021/01/11 11:06:48;;;;;;;24.02;13.80;;;;;;;0.60;64.63;97081.58;1785388;78;21106;-91
2021/01/11 11:09:16;;;;;;;22.65;12.40;;;;;;;0.37;64.84;97083.80;1779025;80;21508;-91
2021/01/11 11:11:43;;;;;;;20.55;11.93;;;;;;;0.36;65.00;97080.39;1789425;79;21313;-91
2021/01/11 11:14:10;;;;;;;22.40;13.28;;;;;;;0.41;65.50;97083.69;1783888;80;21123;-90
2021/01/11 11:16:38;;;;;;;20.55;12.00;;;;;;;0.60;65.75;97082.88;1781856;80;21135;-90
2021/01/11 11:19:06;;;;;;;18.10;10.28;;;;;;;0.77;65.88;97075.42;1792806;79;21156;-91
2021/01/11 11:21:33;;;;;;;20.10;11.03;;;;;;;0.74;64.54;97071.41;1791349;79;21259;-90
2021/01/11 11:23:59;;;;;;;22.05;13.00;;;;;;;0.85;65.26;97069.98;1787871;80;21305;-91
2021/01/11 11:26:27;;;;;;;19.60;12.53;;;;;;;0.95;64.41;97070.34;1794497;79;21693;-90
2021/01/11 11:28:53;;;;;;;17.42;9.23;;;;;;;1.01;64.92;97070.84;1809020;79;21507;-89
2021/01/11 11:31:21;;;;;;;21.05;11.30;;;;;;;1.13;64.70;97067.09;1785066;78;21114;-89
2021/01/11 11:33:48;;;;;;;19.07;10.35;;;;;;;1.11;63.17;97060.74;1790620;79;21111;-90
2021/01/11 11:36:19;;;;;;;20.17;11.25;;;;;;;1.04;64.12;97053.45;1769082;79;21150;-91